Time;durP1;ratioP1;P1;durP2;ratioP2;P2;SDS_P1;SDS_P2;PMS_P1;PMS_P2;Temp;Humidity;BMP_temperature;BMP_pressure;BME280_temperature;BME280_humidity;BME280_pressure;Samples;Min_cycle;Max_cycle;Signal;HPM_P1;HPM_P2
2022/01/31 00:03:25;;;;;;;9.90;3.90;;;17.30;60.90;;;;;;10486753;28;20213;-67
2022/01/31 00:08:48;;;;;;;7.87;3.30;;;17.20;60.70;;;;;;10478671;28;20242;-68
2022/01/31 00:14:21;;;;;;;7.20;3.50;;;17.30;60.80;;;;;;10494640;28;20215;-68
2022/01/31 00:19:45;;;;;;;7.17;3.37;;;17.30;60.90;;;;;;10495110;28;20216;-68
2022/01/31 00:25:08;;;;;;;8.57;3.33;;;17.30;60.90;;;;;;10493609;28;20212;-68
2022/01/31 00:30:30;;;;;;;7.20;2.97;;;17.30;60.90;;;;;;10518653;28;20219;-68
2022/01/31 00:35:54;;;;;;;5.40;2.90;;;17.30;60.90;;;;;;10537305;28;20208;-67
2022/01/31 00:41:16;;;;;;;6.13;3.00;;;17.30;60.80;;;;;;10497808;28;20223;-65
2022/01/31 00:46:41;;;;;;;6.93;3.10;;;17.20;60.80;;;;;;10495678;28;20220;-68
2022/01/31 00:52:06;;;;;;;6.13;3.30;;;17.20;60.90;;;;;;10509197;28;20699;-68
2022/01/31 00:57:28;;;;;;;5.87;3.07;;;17.30;60.90;;;;;;10478247;28;20583;-67
2022/01/31 01:02:50;;;;;;;7.07;3.00;;;17.20;60.70;;;;;;10486800;28;20208;-67
2022/01/31 01:08:14;;;;;;;5.47;2.70;;;17.20;60.70;;;;;;10492339;28;20714;-68
2022/01/31 01:13:36;;;;;;;7.67;2.93;;;17.30;60.90;;;;;;10480336;28;20236;-68
2022/01/31 01:18:58;;;;;;;7.80;3.00;;;17.20;60.80;;;;;;10474494;28;20718;-67
2022/01/31 01:24:21;;;;;;;7.07;3.17;;;17.20;60.80;;;;;;10498781;28;20212;-68
2022/01/31 01:29:45;;;;;;;5.20;2.57;;;17.20;60.70;;;;;;10475165;28;20208;-66
2022/01/31 01:35:08;;;;;;;6.73;3.20;;;17.20;60.70;;;;;;10488774;28;20220;-67
2022/01/31 01:40:31;;;;;;;7.20;2.50;;;17.20;60.80;;;;;;10510072;28;20617;-67
2022/01/31 01:45:55;;;;;;;4.73;2.43;;;17.20;60.70;;;;;;10502045;28;20227;-67
2022/01/31 01:51:18;;;;;;;6.57;2.60;;;17.20;60.70;;;;;;10496495;28;20227;-67
2022/01/31 01:56:41;;;;;;;5.90;2.40;;;17.30;60.80;;;;;;10498000;28;20188;-67
2022/01/31 02:02:04;;;;;;;5.57;2.50;;;17.20;60.70;;;;;;10489561;28;20710;-69
2022/01/31 02:07:27;;;;;;;4.07;2.30;;;17.20;60.70;;;;;;10471403;28;20228;-67
2022/01/31 02:12:51;;;;;;;5.17;2.60;;;17.20;60.70;;;;;;10504502;28;20211;-68
2022/01/31 02:18:14;;;;;;;7.00;2.97;;;17.20;60.70;;;;;;10489538;28;20192;-67
2022/01/31 02:23:38;;;;;;;5.63;2.40;;;17.20;60.70;;;;;;10486796;28;20214;-68
2022/01/31 02:29:00;;;;;;;6.33;2.43;;;17.20;60.60;;;;;;10503575;28;20203;-68
2022/01/31 02:34:22;;;;;;;4.57;2.57;;;17.20;60.70;;;;;;10489180;28;20199;-68
2022/01/31 02:39:46;;;;;;;5.60;2.50;;;17.10;60.50;;;;;;10469816;28;20692;-67
2022/01/31 02:45:09;;;;;;;4.97;2.37;;;17.20;60.60;;;;;;10490987;28;20211;-67
2022/01/31 02:50:31;;;;;;;4.70;2.33;;;17.20;60.60;;;;;;10479290;28;20207;-68
2022/01/31 02:55:57;;;;;;;4.10;2.03;;;17.20;60.60;;;;;;10488560;28;20207;-67
2022/01/31 03:01:22;;;;;;;7.90;2.67;;;17.20;60.50;;;;;;10493789;28;20923;-67
2022/01/31 03:06:49;;;;;;;6.30;2.30;;;17.20;60.60;;;;;;10497664;28;20203;-68
2022/01/31 03:12:13;;;;;;;4.50;2.20;;;17.20;60.50;;;;;;10499640;28;20296;-68
2022/01/31 03:17:35;;;;;;;5.93;2.33;;;17.20;60.50;;;;;;10475967;28;20656;-67
2022/01/31 03:22:58;;;;;;;5.23;2.10;;;17.20;60.50;;;;;;10470329;28;20255;-68
2022/01/31 03:28:21;;;;;;;5.10;2.40;;;17.20;60.50;;;;;;10489160;28;20219;-68
2022/01/31 03:33:43;;;;;;;4.17;2.17;;;17.20;60.70;;;;;;10518981;28;20784;-67
2022/01/31 03:39:06;;;;;;;4.87;2.13;;;17.20;60.60;;;;;;10517098;28;20198;-67
2022/01/31 03:44:30;;;;;;;4.77;2.00;;;17.20;60.40;;;;;;10510598;28;20208;-67
2022/01/31 03:49:52;;;;;;;7.43;2.40;;;17.10;60.40;;;;;;10508912;28;20638;-67
2022/01/31 03:55:15;;;;;;;6.07;2.40;;;17.10;60.40;;;;;;10500634;28;20207;-66
2022/01/31 04:00:38;;;;;;;5.33;2.40;;;17.20;60.40;;;;;;10486797;28;20216;-68
2022/01/31 04:06:01;;;;;;;6.07;2.77;;;17.20;60.50;;;;;;10505818;28;20587;-67
2022/01/31 04:11:23;;;;;;;4.77;2.43;;;17.20;60.60;;;;;;10491677;28;20247;-67
2022/01/31 04:16:46;;;;;;;4.03;2.03;;;17.20;60.50;;;;;;10495201;28;20694;-68
2022/01/31 04:22:11;;;;;;;3.83;2.10;;;17.20;60.50;;;;;;10491766;28;20212;-67
2022/01/31 04:27:44;;;;;;;4.40;2.00;;;17.20;60.50;;;;;;10489577;28;20208;-67
2022/01/31 04:33:07;;;;;;;4.93;2.10;;;17.20;60.50;;;;;;10486482;28;20281;-67
2022/01/31 04:38:30;;;;;;;4.53;1.93;;;17.20;60.50;;;;;;10493537;28;20184;-67
2022/01/31 04:43:55;;;;;;;6.27;2.10;;;17.20;60.40;;;;;;10487706;28;20230;-67
2022/01/31 04:49:20;;;;;;;6.13;2.23;;;17.20;60.50;;;;;;10490433;28;20189;-67
2022/01/31 04:54:42;;;;;;;3.53;2.00;;;17.20;60.60;;;;;;10485615;28;20185;-67
2022/01/31 05:00:06;;;;;;;4.57;2.10;;;17.20;60.60;;;;;;10492451;28;20683;-67
2022/01/31 05:05:29;;;;;;;6.90;2.13;;;17.20;60.50;;;;;;10463330;28;20217;-68
2022/01/31 05:10:52;;;;;;;4.13;1.83;;;17.20;60.60;;;;;;10454153;28;20216;-67
2022/01/31 05:16:14;;;;;;;5.37;1.90;;;17.20;60.40;;;;;;10472385;28;20769;-68
2022/01/31 05:21:38;;;;;;;4.80;1.90;;;17.20;60.40;;;;;;10498358;28;20714;-68
2022/01/31 05:27:00;;;;;;;4.90;2.20;;;17.20;60.40;;;;;;10473965;28;20229;-67
2022/01/31 05:32:22;;;;;;;5.47;1.90;;;17.30;60.40;;;;;;10481826;28;20216;-67
2022/01/31 05:37:45;;;;;;;4.20;1.87;;;17.30;60.40;;;;;;10530267;28;20188;-67
2022/01/31 05:43:07;;;;;;;5.90;2.40;;;17.20;60.40;;;;;;10534976;28;20238;-67
2022/01/31 05:48:30;;;;;;;4.40;2.10;;;17.30;60.40;;;;;;10520258;28;20220;-68
2022/01/31 05:53:53;;;;;;;6.00;2.30;;;17.20;60.30;;;;;;10492269;28;20216;-67
2022/01/31 05:59:15;;;;;;;4.10;1.70;;;17.20;60.30;;;;;;10515344;28;20199;-67
2022/01/31 06:04:37;;;;;;;5.47;1.60;;;17.30;60.40;;;;;;10452567;28;20205;-67
2022/01/31 06:10:01;;;;;;;4.03;1.67;;;17.30;60.40;;;;;;10488499;28;20204;-68
2022/01/31 06:15:23;;;;;;;3.63;1.70;;;17.30;60.30;;;;;;10495469;28;20196;-67
2022/01/31 06:20:45;;;;;;;5.90;2.10;;;17.20;60.90;;;;;;10495999;28;20219;-67
2022/01/31 06:26:10;;;;;;;4.30;1.73;;;17.20;60.30;;;;;;10505054;28;20721;-68
2022/01/31 06:31:32;;;;;;;3.50;1.80;;;17.30;60.30;;;;;;10499444;28;20579;-67
2022/01/31 06:36:55;;;;;;;3.50;2.00;;;17.30;60.30;;;;;;10504558;28;20626;-68
2022/01/31 06:42:18;;;;;;;3.80;1.50;;;17.30;60.30;;;;;;10499441;28;20615;-67
2022/01/31 06:47:40;;;;;;;4.10;1.80;;;17.30;60.30;;;;;;10506796;28;20215;-67
2022/01/31 06:53:05;;;;;;;3.53;1.80;;;17.30;60.40;;;;;;10505456;28;20219;-68
2022/01/31 06:58:28;;;;;;;3.17;1.87;;;17.30;60.40;;;;;;10466428;28;20196;-67
2022/01/31 07:03:50;;;;;;;3.50;1.60;;;17.30;60.30;;;;;;10486410;28;20231;-68
2022/01/31 07:09:12;;;;;;;4.20;1.53;;;17.30;60.40;;;;;;10457838;28;20598;-67
2022/01/31 07:14:36;;;;;;;2.03;1.20;;;17.30;60.50;;;;;;10489697;28;20196;-67
2022/01/31 07:19:58;;;;;;;2.80;1.53;;;17.30;60.50;;;;;;10506345;28;20718;-67
2022/01/31 07:25:34;;;;;;;3.20;1.47;;;17.30;60.50;;;;;;10503611;28;20568;-67
2022/01/31 07:30:58;;;;;;;2.30;1.37;;;17.30;60.60;;;;;;10477831;28;20257;-66
2022/01/31 07:36:22;;;;;;;2.83;1.23;;;17.30;60.50;;;;;;10479673;28;20203;-68
2022/01/31 07:41:45;;;;;;;3.23;1.73;;;17.30;61.20;;;;;;10472157;28;20731;-67
2022/01/31 07:47:08;;;;;;;2.13;1.30;;;17.30;60.80;;;;;;10479144;28;20274;-67
2022/01/31 07:52:30;;;;;;;2.63;1.07;;;17.20;60.70;;;;;;10513503;28;20220;-67
2022/01/31 07:57:53;;;;;;;1.90;1.03;;;17.20;60.70;;;;;;10489179;28;20224;-66
2022/01/31 08:03:16;;;;;;;2.50;1.23;;;17.20;60.80;;;;;;10496089;28;20696;-66
2022/01/31 08:08:38;;;;;;;2.57;1.27;;;17.30;60.90;;;;;;10504417;28;20241;-66
2022/01/31 08:14:06;;;;;;;1.63;1.10;;;17.20;60.90;;;;;;10515389;28;20758;-67
2022/01/31 08:19:29;;;;;;;2.10;1.30;;;17.30;61.10;;;;;;10483691;28;20816;-66
2022/01/31 08:24:51;;;;;;;2.50;1.30;;;17.30;61.10;;;;;;10528156;28;20203;-68
2022/01/31 08:30:19;;;;;;;1.97;1.10;;;17.30;61.20;;;;;;10491159;28;20702;-68
2022/01/31 08:35:50;;;;;;;2.10;1.20;;;17.30;61.40;;;;;;10457095;28;20188;-67
2022/01/31 08:41:13;;;;;;;2.03;1.20;;;17.40;61.40;;;;;;10482080;28;20236;-68
2022/01/31 08:46:39;;;;;;;0.60;0.60;;;17.30;61.30;;;;;;10484204;28;20758;-68
2022/01/31 08:52:03;;;;;;;2.37;1.33;;;17.40;61.30;;;;;;10494438;28;20713;-68
2022/01/31 08:57:25;;;;;;;1.60;1.00;;;17.40;61.30;;;;;;10464727;28;20197;-67
2022/01/31 09:03:00;;;;;;;0.97;0.80;;;17.40;61.20;;;;;;10501997;28;20218;-66
2022/01/31 09:08:24;;;;;;;1.37;1.10;;;17.30;60.80;;;;;;10518637;28;20215;-66
2022/01/31 09:13:46;;;;;;;1.37;0.87;;;17.30;60.80;;;;;;10500041;28;20212;-67
2022/01/31 09:19:09;;;;;;;1.10;0.90;;;17.30;60.90;;;;;;10500573;28;20658;-66
2022/01/31 09:24:37;;;;;;;0.87;0.80;;;17.20;60.80;;;;;;10504178;28;20796;-66
2022/01/31 09:29:59;;;;;;;3.90;0.83;;;17.20;60.90;;;;;;10473611;28;20216;-67
2022/01/31 09:35:22;;;;;;;1.00;0.70;;;17.30;61.00;;;;;;10495275;28;20192;-68
2022/01/31 09:40:45;;;;;;;1.30;0.80;;;17.30;61.10;;;;;;10481956;28;20228;-67
2022/01/31 09:46:32;;;;;;;1.53;0.87;;;17.30;61.00;;;;;;10519563;28;20216;-67
2022/01/31 09:51:54;;;;;;;1.30;0.83;;;17.30;61.10;;;;;;10489611;28;20216;-67
2022/01/31 09:57:18;;;;;;;1.33;0.77;;;17.20;61.10;;;;;;10472182;28;20697;-68
2022/01/31 10:02:41;;;;;;;1.00;0.77;;;17.30;61.30;;;;;;10479357;28;20552;-68
2022/01/31 10:08:12;;;;;;;1.47;0.80;;;17.30;61.30;;;;;;10493515;28;20219;-67
2022/01/31 10:19:15;;;;;;;0.97;0.80;;;17.30;61.40;;;;;;10482487;28;20457;-69
2022/01/31 10:24:39;;;;;;;5.47;1.20;;;17.40;61.10;;;;;;10511776;28;20442;-69
2022/01/31 10:30:10;;;;;;;2.07;0.87;;;17.60;60.70;;;;;;10492434;28;20227;-67
2022/01/31 10:35:32;;;;;;;1.90;0.70;;;17.60;61.20;;;;;;10486661;28;20199;-68
2022/01/31 10:52:15;;;;;;;54.47;22.00;;;17.70;61.40;;;;;;10484676;28;20220;-69
2022/01/31 10:57:37;;;;;;;36.93;17.63;;;17.60;61.50;;;;;;10477594;28;20194;-67
2022/01/31 11:03:01;;;;;;;33.50;14.47;;;17.60;61.70;;;;;;10491937;28;20220;-67
2022/01/31 11:08:23;;;;;;;28.27;12.00;;;17.50;61.60;;;;;;10498809;28;20223;-67
2022/01/31 11:13:48;;;;;;;19.07;10.43;;;17.50;61.60;;;;;;10533309;28;20212;-67
2022/01/31 11:19:15;;;;;;;21.57;9.20;;;17.50;61.60;;;;;;10459204;28;20227;-67
2022/01/31 11:24:42;;;;;;;18.90;9.20;;;17.50;61.50;;;;;;10470383;28;20234;-67
2022/01/31 11:30:06;;;;;;;17.97;8.03;;;17.50;61.50;;;;;;10511462;28;20231;-67
2022/01/31 11:35:29;;;;;;;19.67;8.37;;;17.50;61.50;;;;;;10528111;28;20200;-67
2022/01/31 11:40:53;;;;;;;14.23;6.50;;;17.50;61.50;;;;;;10487461;28;20235;-68
2022/01/31 11:46:15;;;;;;;16.57;6.83;;;17.50;61.50;;;;;;10489312;28;20224;-67
2022/01/31 11:52:06;;;;;;;13.57;6.83;;;17.50;61.50;;;;;;10481440;28;20227;-67
2022/01/31 11:57:30;;;;;;;12.20;6.47;;;17.50;61.30;;;;;;10455867;28;20193;-67
2022/01/31 12:02:55;;;;;;;12.57;5.87;;;17.50;61.50;;;;;;10480892;28;20240;-67
2022/01/31 12:08:22;;;;;;;10.60;5.07;;;17.50;61.40;;;;;;10490211;28;20208;-68
2022/01/31 12:13:49;;;;;;;13.13;4.83;;;17.50;61.40;;;;;;10490032;28;20292;-67
2022/01/31 12:19:46;;;;;;;7.50;4.30;;;17.50;61.40;;;;;;10488200;28;20185;-67
2022/01/31 12:25:26;;;;;;;8.10;4.20;;;17.50;61.20;;;;;;10499171;28;20280;-67
2022/01/31 12:30:48;;;;;;;8.30;3.60;;;17.50;61.20;;;;;;10535067;28;20208;-66
2022/01/31 12:36:10;;;;;;;8.73;3.80;;;17.50;61.40;;;;;;10505388;28;20189;-67
2022/01/31 12:41:34;;;;;;;7.53;3.80;;;17.40;61.30;;;;;;10491069;28;20216;-66
2022/01/31 12:47:07;;;;;;;7.73;3.53;;;17.50;61.40;;;;;;10460831;28;20204;-66
2022/01/31 12:52:35;;;;;;;6.73;3.60;;;17.50;61.30;;;;;;10484160;28;20219;-67
2022/01/31 12:57:58;;;;;;;6.60;3.33;;;17.50;61.40;;;;;;10484518;28;20552;-67
2022/01/31 13:03:32;;;;;;;6.97;2.83;;;17.50;61.40;;;;;;10490607;28;20208;-67
2022/01/31 13:08:55;;;;;;;7.37;2.93;;;17.50;61.20;;;;;;10484426;28;20224;-69
2022/01/31 13:14:22;;;;;;;8.03;3.20;;;17.50;61.40;;;;;;10481073;28;20196;-68
2022/01/31 13:19:47;;;;;;;5.97;2.60;;;17.50;61.40;;;;;;10482683;28;20279;-67
2022/01/31 13:25:12;;;;;;;5.00;2.37;;;17.50;61.40;;;;;;10501935;28;20293;-68
2022/01/31 13:30:36;;;;;;;4.97;2.33;;;17.50;61.40;;;;;;10491601;28;20246;-67
2022/01/31 13:36:01;;;;;;;3.90;2.40;;;17.50;61.40;;;;;;10495268;28;20698;-67
2022/01/31 13:41:24;;;;;;;5.73;2.63;;;17.50;61.30;;;;;;10479247;28;20258;-65
2022/01/31 13:46:51;;;;;;;5.53;2.33;;;17.50;61.40;;;;;;10491985;28;20708;-67
2022/01/31 13:52:13;;;;;;;3.67;1.83;;;17.50;61.40;;;;;;10487270;28;20310;-69
2022/01/31 13:57:37;;;;;;;4.50;1.83;;;17.50;61.30;;;;;;10486440;28;20200;-68
2022/01/31 14:03:21;;;;;;;3.13;1.77;;;17.50;61.40;;;;;;10459521;28;20222;-68
2022/01/31 14:08:45;;;;;;;5.60;1.83;;;17.50;61.20;;;;;;10481476;28;20792;-67
2022/01/31 14:14:10;;;;;;;4.63;1.73;;;17.50;61.40;;;;;;10452558;28;20226;-69
2022/01/31 14:19:33;;;;;;;3.17;1.60;;;17.50;61.40;;;;;;10524252;28;20284;-68
2022/01/31 14:24:56;;;;;;;2.90;1.67;;;17.50;61.30;;;;;;10522051;28;20223;-67
2022/01/31 14:30:20;;;;;;;3.43;1.53;;;17.50;61.40;;;;;;10481621;28;20718;-67
2022/01/31 14:35:44;;;;;;;3.03;1.30;;;17.50;61.70;;;;;;10444457;28;20928;-66
2022/01/31 14:41:23;;;;;;;3.23;1.60;;;17.50;61.20;;;;;;10484823;28;20229;-67
2022/01/31 14:52:28;;;;;;;1.50;1.10;;;17.50;61.50;;;;;;10485993;28;20298;-66
2022/01/31 14:57:52;;;;;;;2.10;1.37;;;17.40;61.50;;;;;;10458373;28;20323;-66
2022/01/31 15:03:14;;;;;;;2.77;1.50;;;17.40;61.70;;;;;;10519729;28;20906;-66
2022/01/31 15:08:38;;;;;;;2.27;1.47;;;17.40;61.80;;;;;;10496510;28;20217;-67
2022/01/31 15:14:00;;;;;;;2.13;1.23;;;17.50;61.70;;;;;;10459479;28;20679;-67
2022/01/31 15:19:22;;;;;;;2.30;1.27;;;17.50;61.60;;;;;;10485573;28;20185;-66
2022/01/31 15:24:46;;;;;;;2.63;0.93;;;17.40;61.80;;;;;;10483614;28;20208;-66
2022/01/31 15:30:09;;;;;;;2.10;1.30;;;17.40;62.00;;;;;;10473967;28;20224;-66
2022/01/31 15:35:31;;;;;;;2.13;1.37;;;17.40;62.00;;;;;;10483228;28;20197;-67
2022/01/31 15:40:55;;;;;;;2.47;1.60;;;17.40;62.20;;;;;;10492074;28;20232;-66
2022/01/31 15:46:18;;;;;;;1.93;1.40;;;17.40;62.20;;;;;;10504465;28;20327;-67
2022/01/31 15:51:40;;;;;;;1.70;1.30;;;17.40;62.30;;;;;;10499067;28;20224;-66
2022/01/31 15:57:03;;;;;;;2.07;1.47;;;17.40;62.30;;;;;;10492410;28;20204;-66
2022/01/31 16:02:26;;;;;;;2.67;1.57;;;17.40;62.40;;;;;;10496873;28;20357;-65
2022/01/31 16:07:48;;;;;;;1.90;1.40;;;17.40;62.40;;;;;;10511761;28;20215;-66
2022/01/31 16:13:12;;;;;;;1.97;1.37;;;17.40;62.40;;;;;;10491880;28;20208;-67
2022/01/31 16:18:34;;;;;;;2.13;1.20;;;17.40;62.40;;;;;;10494902;28;20254;-66
2022/01/31 16:23:57;;;;;;;1.70;1.27;;;17.40;62.50;;;;;;10497338;28;20218;-64
2022/01/31 16:29:20;;;;;;;7.73;1.50;;;17.40;62.40;;;;;;10479480;28;20227;-66
2022/01/31 16:34:42;;;;;;;4.37;1.50;;;17.50;62.40;;;;;;10464324;28;20200;-66
2022/01/31 16:40:06;;;;;;;4.37;1.50;;;17.50;62.30;;;;;;10512452;28;20420;-66
2022/01/31 16:45:30;;;;;;;2.67;1.20;;;18.10;60.60;;;;;;10536650;28;20422;-66
2022/01/31 16:50:52;;;;;;;4.83;1.43;;;17.80;61.80;;;;;;10534892;28;20221;-66
2022/01/31 16:56:15;;;;;;;2.53;1.40;;;17.60;62.20;;;;;;10495825;28;20564;-71
2022/01/31 17:01:38;;;;;;;1.93;1.17;;;17.60;62.40;;;;;;10494197;28;20219;-71
2022/01/31 17:07:00;;;;;;;2.37;1.30;;;17.50;62.50;;;;;;10493691;28;20209;-71
2022/01/31 17:12:25;;;;;;;3.67;1.40;;;17.50;62.40;;;;;;10461057;28;20228;-71
2022/01/31 17:17:50;;;;;;;2.70;1.10;;;17.50;62.40;;;;;;10451476;28;20193;-70
2022/01/31 17:23:12;;;;;;;2.50;1.33;;;17.60;62.40;;;;;;10449214;28;20286;-71
2022/01/31 17:28:34;;;;;;;1.67;1.00;;;17.60;62.40;;;;;;10470069;28;20277;-69
2022/01/31 17:33:57;;;;;;;3.47;1.30;;;17.50;62.30;;;;;;10520719;28;20212;-69
2022/01/31 17:39:19;;;;;;;1.83;1.00;;;17.50;62.30;;;;;;10534408;28;20270;-70
2022/01/31 17:44:46;;;;;;;1.93;1.23;;;17.60;62.30;;;;;;10501567;28;20200;-69
2022/01/31 17:50:10;;;;;;;1.47;1.07;;;17.50;62.30;;;;;;10526942;28;20220;-70
2022/01/31 17:55:34;;;;;;;3.63;1.17;;;17.50;62.30;;;;;;10497103;28;20227;-71
2022/01/31 18:00:59;;;;;;;2.00;1.03;;;17.50;62.80;;;;;;10488152;28;20223;-72
2022/01/31 18:06:22;;;;;;;1.73;1.07;;;17.60;62.30;;;;;;10475170;28;20201;-72
2022/01/31 18:11:44;;;;;;;3.25;1.30;;;17.50;62.20;;;;;;10490262;28;20430;-70
2022/01/31 18:17:07;;;;;;;1.07;0.90;;;18.30;59.40;;;;;;10504326;28;20195;-70
2022/01/31 18:22:31;;;;;;;2.17;1.00;;;17.80;60.70;;;;;;10491896;28;20212;-69
2022/01/31 18:27:53;;;;;;;2.43;1.33;;;17.60;61.70;;;;;;10493362;28;20227;-70
2022/01/31 18:33:15;;;;;;;2.33;1.33;;;17.50;61.60;;;;;;10494120;28;20361;-71
2022/01/31 18:38:40;;;;;;;2.23;1.13;;;17.50;62.00;;;;;;10491182;28;20185;-72
2022/01/31 18:44:09;;;;;;;1.97;1.20;;;17.50;62.20;;;;;;10505091;28;20220;-72
2022/01/31 18:49:33;;;;;;;1.90;0.97;;;17.50;62.30;;;;;;10463114;28;20307;-72
2022/01/31 18:54:57;;;;;;;1.27;0.90;;;17.50;62.30;;;;;;10487175;28;20197;-71
2022/01/31 19:00:19;;;;;;;2.03;1.20;;;17.50;62.30;;;;;;10483129;28;20212;-70
2022/01/31 19:05:42;;;;;;;2.17;1.20;;;17.50;62.20;;;;;;10489467;28;20196;-70
2022/01/31 19:11:10;;;;;;;1.97;1.10;;;17.50;62.00;;;;;;10491392;28;20227;-70
2022/01/31 19:16:32;;;;;;;1.67;1.43;;;17.50;62.00;;;;;;10534899;28;20199;-70
2022/01/31 19:21:54;;;;;;;2.20;1.03;;;17.50;62.00;;;;;;10533501;28;20219;-71
2022/01/31 19:27:18;;;;;;;3.30;1.13;;;17.50;61.90;;;;;;10508070;28;20200;-71
2022/01/31 19:32:40;;;;;;;2.10;1.30;;;17.50;61.90;;;;;;10512052;28;20220;-70
2022/01/31 19:38:04;;;;;;;2.57;1.40;;;17.50;61.90;;;;;;10492995;28;20912;-70
2022/01/31 19:43:28;;;;;;;2.77;1.43;;;17.40;61.90;;;;;;10494933;28;20207;-70
2022/01/31 19:48:55;;;;;;;2.77;1.50;;;17.40;61.90;;;;;;10505521;28;20215;-70
2022/01/31 19:54:18;;;;;;;2.27;1.17;;;17.50;61.90;;;;;;10490853;28;20197;-70
2022/01/31 19:59:41;;;;;;;2.47;1.40;;;17.40;61.80;;;;;;10486427;28;20591;-71
2022/01/31 20:05:04;;;;;;;2.73;1.27;;;17.50;61.90;;;;;;10502102;28;20208;-70
2022/01/31 20:10:35;;;;;;;2.47;1.47;;;17.40;61.80;;;;;;10503271;28;20220;-70
2022/01/31 20:15:58;;;;;;;3.80;1.37;;;17.40;61.80;;;;;;10493581;28;20273;-70
2022/01/31 20:21:23;;;;;;;2.43;1.37;;;17.40;61.80;;;;;;10503737;28;20686;-70
2022/01/31 20:26:45;;;;;;;2.10;1.27;;;17.40;61.80;;;;;;10487411;28;20679;-70
2022/01/31 20:32:08;;;;;;;2.70;1.43;;;17.50;61.90;;;;;;10503632;28;20846;-70
2022/01/31 20:37:37;;;;;;;3.00;1.40;;;17.40;61.90;;;;;;10470472;28;20193;-70
2022/01/31 20:42:59;;;;;;;3.33;1.30;;;17.40;61.90;;;;;;10492081;28;20217;-70
2022/01/31 20:48:23;;;;;;;2.60;1.20;;;17.40;61.90;;;;;;10493240;28;20701;-70
2022/01/31 20:53:46;;;;;;;2.50;1.57;;;17.40;61.90;;;;;;10488196;28;20341;-70
2022/01/31 20:59:09;;;;;;;2.03;1.30;;;17.40;61.90;;;;;;10502328;28;20197;-70
2022/01/31 21:04:32;;;;;;;2.07;1.53;;;17.40;61.90;;;;;;10457509;28;20197;-70
2022/01/31 21:09:55;;;;;;;1.63;1.30;;;17.40;61.90;;;;;;10469922;28;20224;-70
2022/01/31 21:15:17;;;;;;;2.10;1.30;;;17.40;61.90;;;;;;10494304;28;20203;-70
2022/01/31 21:20:40;;;;;;;2.00;1.60;;;17.40;61.90;;;;;;10493234;28;20217;-70
2022/01/31 21:26:02;;;;;;;2.17;1.50;;;17.50;61.90;;;;;;10476406;28;20559;-70
2022/01/31 21:31:25;;;;;;;3.23;1.37;;;17.50;61.90;;;;;;10492733;28;20746;-71
2022/01/31 21:36:49;;;;;;;2.30;1.23;;;17.40;61.80;;;;;;10494178;28;20192;-70
2022/01/31 21:42:11;;;;;;;2.20;1.47;;;17.40;61.80;;;;;;10485798;28;20207;-70
2022/01/31 21:47:33;;;;;;;2.37;1.20;;;17.40;61.70;;;;;;10534855;28;20670;-70
2022/01/31 21:52:57;;;;;;;2.40;1.43;;;17.40;61.70;;;;;;10514414;28;20231;-71
2022/01/31 21:58:19;;;;;;;2.97;1.60;;;17.40;61.70;;;;;;10492379;28;20195;-70
2022/01/31 22:03:41;;;;;;;2.10;1.50;;;17.40;61.70;;;;;;10494408;28;20220;-70
2022/01/31 22:09:05;;;;;;;2.70;1.43;;;17.40;61.80;;;;;;10492536;28;20220;-70
2022/01/31 22:14:28;;;;;;;2.13;1.27;;;17.40;61.70;;;;;;10493473;28;20667;-71
2022/01/31 22:19:51;;;;;;;2.67;1.40;;;17.40;61.70;;;;;;10492201;28;20216;-70
2022/01/31 22:25:16;;;;;;;2.27;1.40;;;17.40;61.60;;;;;;10487711;28;20188;-70
2022/01/31 22:30:40;;;;;;;2.93;1.53;;;17.40;61.60;;;;;;10493239;28;20212;-71
2022/01/31 22:36:03;;;;;;;3.27;1.40;;;17.40;61.60;;;;;;10493660;28;20193;-71
2022/01/31 22:41:27;;;;;;;2.17;1.33;;;17.40;61.70;;;;;;10500047;22;20232;-65
2022/01/31 22:46:49;;;;;;;2.63;1.60;;;17.40;61.70;;;;;;10413588;28;20217;-65
2022/01/31 22:52:11;;;;;;;2.53;1.30;;;17.40;61.80;;;;;;10424632;28;20235;-65
2022/01/31 22:57:34;;;;;;;2.60;1.40;;;17.40;61.80;;;;;;10449027;28;20700;-65
2022/01/31 23:02:56;;;;;;;3.10;1.67;;;17.40;61.70;;;;;;10444539;28;20201;-65
2022/01/31 23:08:18;;;;;;;1.57;1.20;;;17.40;61.60;;;;;;10447806;28;20227;-65
2022/01/31 23:13:48;;;;;;;2.53;1.30;;;17.40;61.70;;;;;;10440013;28;20547;-66
2022/01/31 23:19:19;;;;;;;2.53;1.27;;;17.40;61.70;;;;;;10444193;28;20210;-65
2022/01/31 23:53:19;;;;;;;1.33;1.00;;;17.40;61.60;;;;;;10455840;28;20208;-65
